createdAt,value
2023-05-02T00:00:22.054Z,99980.55
2023-05-02T00:05:45.190Z,99981.35
2023-05-02T00:10:48.105Z,99980.10
2023-05-02T00:15:50.910Z,99972.64
2023-05-02T00:20:53.704Z,99968.93
2023-05-02T00:25:56.426Z,99962.16
2023-05-02T00:30:59.488Z,99956.27
2023-05-02T00:36:02.380Z,99948.36
2023-05-02T00:41:06.330Z,99945.63
2023-05-02T00:46:13.188Z,99936.02
2023-05-02T00:51:16.622Z,99927.05
2023-05-02T00:56:19.642Z,99922.58
2023-05-02T01:02:14.074Z,99918.40
2023-05-02T01:07:41.829Z,99911.48
2023-05-02T01:12:57.124Z,99900.05
2023-05-02T01:18:02.458Z,99898.58
2023-05-02T01:23:14.102Z,99897.84
2023-05-02T01:28:28.694Z,99894.05
2023-05-02T01:33:32.740Z,99889.33
2023-05-02T01:38:37.689Z,99886.13
2023-05-02T01:43:42.292Z,99881.32
2023-05-02T01:48:49.461Z,99877.42
2023-05-02T01:53:53.338Z,99872.59
2023-05-02T01:58:56.992Z,99863.77
2023-05-02T02:04:01.683Z,99852.41
2023-05-02T02:09:04.707Z,99851.83
2023-05-02T02:14:11.213Z,99850.65
2023-05-02T02:19:15.682Z,99850.14
2023-05-02T02:24:23.243Z,99847.90
2023-05-02T02:29:26.069Z,99840.70
2023-05-02T02:34:29.078Z,99842.66
2023-05-02T02:39:49.039Z,99848.83
2023-05-02T02:45:07.220Z,99845.17
2023-05-02T02:50:25.401Z,99841.88
2023-05-02T02:55:55.998Z,99840.30
2023-05-02T03:01:04.169Z,99841.51
2023-05-02T03:06:07.157Z,99831.84
2023-05-02T03:11:10.609Z,99831.61
2023-05-02T03:16:28.980Z,99826.52
2023-05-02T03:21:33.445Z,99827.91
2023-05-02T03:26:36.491Z,99825.20
2023-05-02T03:31:39.244Z,99835.41
2023-05-02T03:36:42.259Z,99834.83
2023-05-02T03:41:45.012Z,99837.81
2023-05-02T03:46:48.536Z,99842.30
2023-05-02T03:51:51.742Z,99837.94
2023-05-02T03:56:55.172Z,99838.73
2023-05-02T04:01:58.521Z,99834.34
2023-05-02T04:07:01.782Z,99829.55
2023-05-02T04:12:04.902Z,99827.30
2023-05-02T04:17:08.407Z,99831.17
2023-05-02T04:22:11.314Z,99835.05
2023-05-02T04:27:15.278Z,99831.62
2023-05-02T04:32:18.451Z,99829.25
2023-05-02T04:37:21.320Z,99830.06
2023-05-02T04:42:25.160Z,99832.98
2023-05-02T04:47:27.964Z,99836.31
2023-05-02T04:52:31.217Z,99830.44
2023-05-02T04:57:34.051Z,99834.00
2023-05-02T05:02:37.128Z,99833.27
2023-05-02T05:07:40.102Z,99839.00
2023-05-02T05:12:42.852Z,99840.75
2023-05-02T05:17:45.737Z,99843.07
2023-05-02T05:22:48.914Z,99845.96
2023-05-02T05:27:52.721Z,99846.48
2023-05-02T05:32:55.429Z,99846.40
2023-05-02T05:37:58.600Z,99854.76
2023-05-02T05:43:01.414Z,99858.29
2023-05-02T05:48:04.417Z,99857.19
2023-05-02T05:53:07.274Z,99859.95
2023-05-02T05:58:10.523Z,99863.48
2023-05-02T06:03:13.440Z,99870.27
2023-05-02T06:08:16.712Z,99861.11
2023-05-02T06:13:19.417Z,99854.67
2023-05-02T06:18:22.309Z,99864.30
2023-05-02T06:23:25.118Z,99870.77
2023-05-02T06:28:28.489Z,99878.53
2023-05-02T06:33:32.913Z,99886.80
2023-05-02T06:38:35.769Z,99882.70
2023-05-02T06:43:38.578Z,99885.66
2023-05-02T06:48:41.367Z,99893.67
2023-05-02T06:53:44.191Z,99897.46
2023-05-02T06:58:46.948Z,99902.23
2023-05-02T07:03:49.771Z,99908.08
2023-05-02T07:08:52.572Z,99915.19
2023-05-02T07:13:55.372Z,99923.09
2023-05-02T07:18:58.122Z,99921.45
2023-05-02T07:24:01.498Z,99928.84
2023-05-02T07:29:06.908Z,99937.81
2023-05-02T07:34:09.746Z,99947.27
2023-05-02T07:39:12.437Z,99952.16
2023-05-02T07:44:15.466Z,99956.95
2023-05-02T07:49:18.893Z,99953.94
2023-05-02T07:54:22.523Z,99950.30
2023-05-02T07:59:25.491Z,99963.44
2023-05-02T08:04:28.802Z,99967.27
2023-05-02T08:09:31.732Z,99972.11
2023-05-02T08:14:34.847Z,99984.17
2023-05-02T08:19:37.658Z,99995.27
2023-05-02T08:24:40.412Z,100005.52
2023-05-02T08:29:43.162Z,100007.84
2023-05-02T08:34:45.942Z,100014.45
2023-05-02T08:39:48.747Z,100018.27
2023-05-02T08:44:52.592Z,100019.94
2023-05-02T08:49:56.881Z,100024.50
2023-05-02T08:55:02.312Z,100029.64
2023-05-02T09:00:06.846Z,100038.38
2023-05-02T09:05:13.026Z,100039.20
2023-05-02T09:10:16.093Z,100047.90
2023-05-02T09:15:21.028Z,100051.26
2023-05-02T09:20:24.096Z,100062.10
2023-05-02T09:25:37.840Z,100062.69
2023-05-02T09:30:40.864Z,100067.73
2023-05-02T09:35:55.015Z,100062.54
2023-05-02T09:40:57.816Z,100053.58
2023-05-02T09:46:06.908Z,100052.77
2023-05-02T09:51:17.956Z,100051.97
2023-05-02T09:56:22.556Z,100059.34
2023-05-02T10:01:26.876Z,100063.48
2023-05-02T10:06:31.056Z,100065.81
2023-05-02T10:11:34.677Z,100073.88
2023-05-02T10:16:56.317Z,100083.80
2023-05-02T10:22:00.166Z,100089.80
2023-05-02T10:27:05.690Z,100097.84
2023-05-02T10:32:09.605Z,100103.90
2023-05-02T10:37:12.656Z,100103.34
2023-05-02T10:42:15.787Z,100110.72
2023-05-02T10:47:22.692Z,100115.89
2023-05-02T10:52:34.488Z,100122.89
2023-05-02T10:57:57.579Z,100125.43
2023-05-02T11:03:01.333Z,100121.55
2023-05-02T11:08:30.461Z,100130.22
2023-05-02T11:13:53.537Z,100130.23
2023-05-02T11:19:00.944Z,100134.77
2023-05-02T11:24:40.431Z,100140.77
2023-05-02T11:29:56.911Z,100138.42
2023-05-02T11:35:00.396Z,100141.80
2023-05-02T11:40:13.870Z,100140.92
2023-05-02T11:45:17.250Z,100147.73
2023-05-02T11:50:20.143Z,100150.23
2023-05-02T11:55:23.645Z,100147.78
2023-05-02T12:00:29.536Z,100153.78
2023-05-02T12:05:33.038Z,100159.77
2023-05-02T12:10:37.763Z,100161.98
2023-05-02T12:15:41.049Z,100168.15
2023-05-02T12:20:45.109Z,100174.75
2023-05-02T12:25:49.391Z,100173.92
2023-05-02T12:30:52.344Z,100178.07
2023-05-02T12:36:07.111Z,100178.90
2023-05-02T12:41:09.873Z,100189.56
2023-05-02T12:46:12.880Z,100194.13
2023-05-02T12:51:23.741Z,100194.45
2023-05-02T12:56:32.919Z,100197.75
2023-05-02T13:01:36.392Z,100204.04
2023-05-02T13:06:40.795Z,100211.50
2023-05-02T13:11:44.086Z,100212.02
2023-05-02T13:16:46.858Z,100214.98
2023-05-02T13:21:49.701Z,100215.88
2023-05-02T13:26:52.425Z,100220.59
2023-05-02T13:31:55.153Z,100228.33
2023-05-02T13:36:57.994Z,100243.16
2023-05-02T13:42:04.485Z,100255.13
2023-05-02T13:47:08.717Z,100261.05
2023-05-02T13:52:11.741Z,100273.31
2023-05-02T13:57:14.630Z,100276.90
2023-05-02T14:02:17.686Z,100289.27
2023-05-02T14:07:20.646Z,100305.12
2023-05-02T14:12:23.557Z,100321.52
2023-05-02T14:17:27.077Z,100332.70
2023-05-02T14:22:29.984Z,100346.98
2023-05-02T14:27:32.767Z,100361.40
2023-05-02T14:32:35.997Z,100373.51
2023-05-02T14:37:39.512Z,100389.98
2023-05-02T14:42:42.795Z,100402.16
2023-05-02T14:47:45.563Z,100400.89
2023-05-02T14:52:48.642Z,100410.86
2023-05-02T14:57:51.417Z,100428.54
2023-05-02T15:02:54.407Z,100437.56
2023-05-02T15:07:57.395Z,100442.33
2023-05-02T15:13:00.801Z,100449.31
2023-05-02T15:18:04.069Z,100460.73
2023-05-02T15:23:06.915Z,100473.76
2023-05-02T15:28:09.659Z,100486.90
2023-05-02T15:33:12.467Z,100498.54
2023-05-02T15:38:16.622Z,100506.73
2023-05-02T15:43:19.333Z,100512.61
2023-05-02T15:48:23.537Z,100518.10
2023-05-02T15:53:26.960Z,100521.48
2023-05-02T15:58:29.784Z,100522.52
2023-05-02T16:03:34.313Z,100528.21
2023-05-02T16:08:37.305Z,100535.10
2023-05-02T16:13:40.719Z,100546.99
2023-05-02T16:18:43.546Z,100556.09
2023-05-02T16:23:46.530Z,100554.61
2023-05-02T16:28:49.433Z,100555.13
2023-05-02T16:33:52.345Z,100568.42
2023-05-02T16:38:55.151Z,100570.54
2023-05-02T16:43:57.912Z,100575.27
2023-05-02T16:49:00.682Z,100579.09
2023-05-02T16:54:03.547Z,100581.16
2023-05-02T16:59:06.314Z,100588.58
2023-05-02T17:04:09.893Z,100595.94
2023-05-02T17:09:12.639Z,100600.40
2023-05-02T17:14:16.209Z,100596.06
2023-05-02T17:19:18.949Z,100601.23
2023-05-02T17:24:22.191Z,100602.05
2023-05-02T17:29:25.773Z,100604.67
2023-05-02T17:34:30.431Z,100607.30
2023-05-02T17:39:34.104Z,100615.07
2023-05-02T17:44:37.085Z,100625.92
2023-05-02T17:49:40.193Z,100629.55
2023-05-02T17:54:43.103Z,100639.34
2023-05-02T17:59:45.866Z,100646.47
2023-05-02T18:04:49.953Z,100651.60
2023-05-02T18:09:52.869Z,100653.75
2023-05-02T18:14:56.157Z,100658.42
2023-05-02T18:19:58.907Z,100672.28
2023-05-02T18:25:01.938Z,100679.54
2023-05-02T18:30:06.212Z,100682.33
2023-05-02T18:35:11.263Z,100682.69
2023-05-02T18:40:15.286Z,100686.23
2023-05-02T18:45:18.188Z,100686.47
2023-05-02T18:50:21.603Z,100702.48
2023-05-02T18:55:25.448Z,100709.58
2023-05-02T19:00:31.565Z,100716.84
2023-05-02T19:05:35.062Z,100722.62
2023-05-02T19:10:37.981Z,100730.09
2023-05-02T19:15:40.757Z,100738.25
2023-05-02T19:20:43.621Z,100741.73
2023-05-02T19:25:47.210Z,100747.46
2023-05-02T19:30:50.077Z,100752.65
2023-05-02T19:35:54.326Z,100762.62
2023-05-02T19:40:57.165Z,100764.45
2023-05-02T19:46:00.004Z,100766.62
2023-05-02T19:51:04.439Z,100766.50
2023-05-02T19:56:07.503Z,100764.18
2023-05-02T20:01:11.173Z,100771.27
2023-05-02T20:06:14.817Z,100783.84
2023-05-02T20:11:17.606Z,100782.64
2023-05-02T20:16:20.506Z,100784.07
2023-05-02T20:21:23.866Z,100787.07
2023-05-02T20:26:27.000Z,100784.89
2023-05-02T20:31:29.743Z,100793.92
2023-05-02T20:36:33.574Z,100796.20
2023-05-02T20:41:36.665Z,100804.77
2023-05-02T20:46:39.564Z,100813.30
2023-05-02T20:51:42.518Z,100813.50
2023-05-02T20:56:45.668Z,100814.77
2023-05-02T21:01:48.419Z,100818.55
2023-05-02T21:06:53.221Z,100820.77
2023-05-02T21:11:56.142Z,100827.96
2023-05-02T21:16:58.832Z,100829.52
2023-05-02T21:22:01.592Z,100832.70
2023-05-02T21:27:04.597Z,100837.17
2023-05-02T21:32:07.689Z,100840.08
2023-05-02T21:37:10.652Z,100841.55
2023-05-02T21:42:13.550Z,100841.38
2023-05-02T21:47:17.537Z,100846.92
2023-05-02T21:52:20.380Z,100852.83
2023-05-02T21:57:23.250Z,100850.89
2023-05-02T22:02:26.190Z,100853.34
2023-05-02T22:07:29.068Z,100859.61
2023-05-02T22:12:31.821Z,100864.02
2023-05-02T22:17:34.593Z,100866.06
2023-05-02T22:22:37.359Z,100867.58
2023-05-02T22:27:40.398Z,100869.22
2023-05-02T22:32:43.245Z,100874.00
2023-05-02T22:37:46.152Z,100872.96
2023-05-02T22:42:48.908Z,100879.86
2023-05-02T22:47:52.767Z,100881.29
2023-05-02T22:52:59.856Z,100881.38
2023-05-02T22:58:02.743Z,100888.63
2023-05-02T23:03:05.637Z,100889.52
2023-05-02T23:08:08.418Z,100891.83
2023-05-02T23:13:11.351Z,100893.92
2023-05-02T23:18:14.521Z,100896.77
2023-05-02T23:23:17.362Z,100901.92
2023-05-02T23:28:20.221Z,100901.61
2023-05-02T23:33:23.025Z,100898.09
2023-05-02T23:38:26.491Z,100901.45
2023-05-02T23:43:29.611Z,100898.27
2023-05-02T23:48:32.494Z,100899.10
2023-05-02T23:53:35.409Z,100899.17
2023-05-02T23:58:38.318Z,100899.29
